Scituate Center, Massachusetts
Current Conditions -  °F | °C
As of 6:15 AM on Thursday 18 Dec 2014 (Local Time) from KGHG Reporting Station
Overcast Overcast  
Wind Chill: 31°   Ceiling: 2000
Heat Index: 37°   Visibility: 10mi
Dew Point: 32°   Wind: 8mph
Humidity: 81%   Direction: 270°W
Pressure: 29.75"   Gusts: 21mph
Location:  42.201°N, 70.7631°W
Report Text: KGHG 181115Z AUTO 27007G18KT 10SM SCT015 BKN020 OVC050 03/00 A2975 RMK AO2
Loading
Personal Weather Stations






























Interactive Weather Map New forecast layout! Learn more

10-Day Weather Forecast

Advertisements
Track Severe Weather on mobile